sensor_id;sensor_type;location;lat;lon;timestamp;temperature;humidity
43227;DHT22;28839;52.404;9.808;2023-09-12T00:02:26;21.30;99.90
43227;DHT22;28839;52.404;9.808;2023-09-12T00:09:22;21.20;99.90
43227;DHT22;28839;52.404;9.808;2023-09-12T00:16:16;21.20;99.90
43227;DHT22;28839;52.404;9.808;2023-09-12T00:23:10;21.10;99.90
43227;DHT22;28839;52.404;9.808;2023-09-12T00:30:05;21.30;99.90
43227;DHT22;28839;52.404;9.808;2023-09-12T00:36:59;21.30;99.90
43227;DHT22;28839;52.404;9.808;2023-09-12T00:43:53;21.20;99.90
43227;DHT22;28839;52.404;9.808;2023-09-12T00:50:48;21.00;99.90
43227;DHT22;28839;52.404;9.808;2023-09-12T00:57:42;21.00;99.90
43227;DHT22;28839;52.404;9.808;2023-09-12T01:04:36;20.90;99.90
43227;DHT22;28839;52.404;9.808;2023-09-12T01:11:32;20.80;99.90
43227;DHT22;28839;52.404;9.808;2023-09-12T01:18:25;20.60;99.90
43227;DHT22;28839;52.404;9.808;2023-09-12T01:25:34;20.40;99.90
43227;DHT22;28839;52.404;9.808;2023-09-12T01:32:32;20.30;99.90
43227;DHT22;28839;52.404;9.808;2023-09-12T01:39:26;20.10;99.90
43227;DHT22;28839;52.404;9.808;2023-09-12T01:46:20;20.10;99.90
43227;DHT22;28839;52.404;9.808;2023-09-12T01:53:15;20.00;99.90
43227;DHT22;28839;52.404;9.808;2023-09-12T02:00:09;20.10;99.90
43227;DHT22;28839;52.404;9.808;2023-09-12T02:07:04;20.00;99.90
43227;DHT22;28839;52.404;9.808;2023-09-12T02:13:59;19.80;99.90
43227;DHT22;28839;52.404;9.808;2023-09-12T02:20:53;19.80;99.90
43227;DHT22;28839;52.404;9.808;2023-09-12T02:27:46;20.00;99.90
43227;DHT22;28839;52.404;9.808;2023-09-12T02:34:41;19.90;99.90
43227;DHT22;28839;52.404;9.808;2023-09-12T02:41:35;19.80;99.90
43227;DHT22;28839;52.404;9.808;2023-09-12T02:48:28;20.00;99.90
43227;DHT22;28839;52.404;9.808;2023-09-12T02:55:23;20.00;99.90
43227;DHT22;28839;52.404;9.808;2023-09-12T03:02:17;20.10;99.90
43227;DHT22;28839;52.404;9.808;2023-09-12T03:09:11;20.10;99.90
43227;DHT22;28839;52.404;9.808;2023-09-12T03:16:09;20.00;99.90
43227;DHT22;28839;52.404;9.808;2023-09-12T03:23:03;20.10;99.90
43227;DHT22;28839;52.404;9.808;2023-09-12T03:29:56;19.90;99.90
43227;DHT22;28839;52.404;9.808;2023-09-12T03:36:51;19.80;99.90
43227;DHT22;28839;52.404;9.808;2023-09-12T03:43:45;19.80;99.90
43227;DHT22;28839;52.404;9.808;2023-09-12T03:50:39;19.80;99.90
43227;DHT22;28839;52.404;9.808;2023-09-12T03:57:33;20.10;99.90
43227;DHT22;28839;52.404;9.808;2023-09-12T04:04:27;20.00;99.90
43227;DHT22;28839;52.404;9.808;2023-09-12T04:11:21;20.00;99.90
43227;DHT22;28839;52.404;9.808;2023-09-12T04:18:16;20.00;99.90
43227;DHT22;28839;52.404;9.808;2023-09-12T04:25:09;20.00;99.90
43227;DHT22;28839;52.404;9.808;2023-09-12T04:32:03;19.80;99.90
43227;DHT22;28839;52.404;9.808;2023-09-12T04:38:59;19.80;99.90
43227;DHT22;28839;52.404;9.808;2023-09-12T04:45:52;19.70;99.90
43227;DHT22;28839;52.404;9.808;2023-09-12T04:52:46;19.60;99.90
43227;DHT22;28839;52.404;9.808;2023-09-12T04:59:41;19.40;99.90
43227;DHT22;28839;52.404;9.808;2023-09-12T05:06:35;19.30;99.90
43227;DHT22;28839;52.404;9.808;2023-09-12T05:13:28;19.10;99.90
43227;DHT22;28839;52.404;9.808;2023-09-12T05:20:23;19.20;99.90
43227;DHT22;28839;52.404;9.808;2023-09-12T05:27:19;19.20;99.90
43227;DHT22;28839;52.404;9.808;2023-09-12T05:34:13;19.40;99.90
43227;DHT22;28839;52.404;9.808;2023-09-12T05:41:08;19.50;99.90
43227;DHT22;28839;52.404;9.808;2023-09-12T05:48:02;19.50;99.90
43227;DHT22;28839;52.404;9.808;2023-09-12T05:54:56;19.60;99.90
43227;DHT22;28839;52.404;9.808;2023-09-12T06:01:51;19.60;99.90
43227;DHT22;28839;52.404;9.808;2023-09-12T06:08:45;19.50;99.90
43227;DHT22;28839;52.404;9.808;2023-09-12T06:15:38;19.30;99.90
43227;DHT22;28839;52.404;9.808;2023-09-12T06:22:35;18.80;99.90
43227;DHT22;28839;52.404;9.808;2023-09-12T06:29:29;18.50;99.90
43227;DHT22;28839;52.404;9.808;2023-09-12T06:36:23;18.40;99.90
43227;DHT22;28839;52.404;9.808;2023-09-12T06:43:18;18.20;99.90
43227;DHT22;28839;52.404;9.808;2023-09-12T06:50:12;18.20;99.90
43227;DHT22;28839;52.404;9.808;2023-09-12T06:57:06;18.20;99.90
43227;DHT22;28839;52.404;9.808;2023-09-12T07:04:01;18.30;99.90
43227;DHT22;28839;52.404;9.808;2023-09-12T07:10:55;18.40;99.90
43227;DHT22;28839;52.404;9.808;2023-09-12T07:17:49;18.40;99.90
43227;DHT22;28839;52.404;9.808;2023-09-12T07:24:44;18.50;99.90
43227;DHT22;28839;52.404;9.808;2023-09-12T07:31:38;18.40;99.90
43227;DHT22;28839;52.404;9.808;2023-09-12T07:38:31;18.60;99.90
43227;DHT22;28839;52.404;9.808;2023-09-12T07:45:29;18.70;99.90
43227;DHT22;28839;52.404;9.808;2023-09-12T07:52:23;19.00;99.90
43227;DHT22;28839;52.404;9.808;2023-09-12T07:59:17;19.10;99.90
43227;DHT22;28839;52.404;9.808;2023-09-12T08:06:12;19.40;99.90
43227;DHT22;28839;52.404;9.808;2023-09-12T08:13:05;19.60;99.90
43227;DHT22;28839;52.404;9.808;2023-09-12T08:19:59;19.60;99.90
43227;DHT22;28839;52.404;9.808;2023-09-12T08:26:54;19.70;99.90
43227;DHT22;28839;52.404;9.808;2023-09-12T08:33:48;19.70;99.90
43227;DHT22;28839;52.404;9.808;2023-09-12T08:40:47;19.80;99.90
43227;DHT22;28839;52.404;9.808;2023-09-12T08:47:42;20.00;99.90
43227;DHT22;28839;52.404;9.808;2023-09-12T08:54:36;20.10;99.90
43227;DHT22;28839;52.404;9.808;2023-09-12T09:01:30;20.20;99.90
43227;DHT22;28839;52.404;9.808;2023-09-12T09:08:25;20.20;99.90
43227;DHT22;28839;52.404;9.808;2023-09-12T09:15:20;20.30;99.90
43227;DHT22;28839;52.404;9.808;2023-09-12T09:22:14;20.40;99.90
43227;DHT22;28839;52.404;9.808;2023-09-12T09:29:10;20.10;99.90
43227;DHT22;28839;52.404;9.808;2023-09-12T09:36:04;19.90;99.90
43227;DHT22;28839;52.404;9.808;2023-09-12T09:42:59;19.60;99.90
43227;DHT22;28839;52.404;9.808;2023-09-12T09:49:55;19.50;99.90
43227;DHT22;28839;52.404;9.808;2023-09-12T09:56:52;19.20;99.90
43227;DHT22;28839;52.404;9.808;2023-09-12T10:03:46;19.20;99.90
43227;DHT22;28839;52.404;9.808;2023-09-12T10:10:42;19.10;99.90
43227;DHT22;28839;52.404;9.808;2023-09-12T10:17:36;19.00;99.90
43227;DHT22;28839;52.404;9.808;2023-09-12T10:24:31;19.00;99.90
43227;DHT22;28839;52.404;9.808;2023-09-12T10:31:28;19.00;99.90
43227;DHT22;28839;52.404;9.808;2023-09-12T10:38:22;19.10;99.90
43227;DHT22;28839;52.404;9.808;2023-09-12T10:45:16;19.20;99.90
43227;DHT22;28839;52.404;9.808;2023-09-12T10:52:12;19.20;99.90
43227;DHT22;28839;52.404;9.808;2023-09-12T10:59:17;19.10;99.90
43227;DHT22;28839;52.404;9.808;2023-09-12T11:06:19;19.10;99.90
43227;DHT22;28839;52.404;9.808;2023-09-12T11:13:18;19.10;99.90
43227;DHT22;28839;52.404;9.808;2023-09-12T11:20:12;19.20;99.90
43227;DHT22;28839;52.404;9.808;2023-09-12T11:27:06;19.20;99.90
43227;DHT22;28839;52.404;9.808;2023-09-12T11:34:01;19.10;99.90
43227;DHT22;28839;52.404;9.808;2023-09-12T11:40:56;19.00;99.90
43227;DHT22;28839;52.404;9.808;2023-09-12T11:47:50;18.90;99.90
43227;DHT22;28839;52.404;9.808;2023-09-12T11:54:45;19.00;99.90
43227;DHT22;28839;52.404;9.808;2023-09-12T12:01:38;18.80;99.90
43227;DHT22;28839;52.404;9.808;2023-09-12T12:08:32;18.80;99.90
43227;DHT22;28839;52.404;9.808;2023-09-12T12:15:28;18.70;99.90
43227;DHT22;28839;52.404;9.808;2023-09-12T12:22:22;18.60;99.90
43227;DHT22;28839;52.404;9.808;2023-09-12T12:29:16;18.60;99.90
43227;DHT22;28839;52.404;9.808;2023-09-12T12:36:11;18.60;99.90
43227;DHT22;28839;52.404;9.808;2023-09-12T12:43:04;18.70;99.90
43227;DHT22;28839;52.404;9.808;2023-09-12T12:49:58;18.70;99.90
43227;DHT22;28839;52.404;9.808;2023-09-12T12:56:53;18.70;99.90
43227;DHT22;28839;52.404;9.808;2023-09-12T13:03:47;18.90;99.90
43227;DHT22;28839;52.404;9.808;2023-09-12T13:10:42;19.00;99.90
43227;DHT22;28839;52.404;9.808;2023-09-12T13:17:37;19.20;99.90
43227;DHT22;28839;52.404;9.808;2023-09-12T13:24:31;19.50;99.90
43227;DHT22;28839;52.404;9.808;2023-09-12T13:31:24;19.80;99.90
43227;DHT22;28839;52.404;9.808;2023-09-12T13:38:19;20.00;99.90
43227;DHT22;28839;52.404;9.808;2023-09-12T13:45:15;20.00;99.90
43227;DHT22;28839;52.404;9.808;2023-09-12T13:52:08;20.40;99.90
43227;DHT22;28839;52.404;9.808;2023-09-12T13:59:03;20.50;99.90
43227;DHT22;28839;52.404;9.808;2023-09-12T14:05:58;20.70;99.90
43227;DHT22;28839;52.404;9.808;2023-09-12T14:12:52;20.80;99.90
43227;DHT22;28839;52.404;9.808;2023-09-12T14:19:47;21.00;99.90
43227;DHT22;28839;52.404;9.808;2023-09-12T14:26:41;21.10;99.90
43227;DHT22;28839;52.404;9.808;2023-09-12T14:33:34;21.10;99.90
43227;DHT22;28839;52.404;9.808;2023-09-12T14:40:29;21.30;99.90
43227;DHT22;28839;52.404;9.808;2023-09-12T14:47:23;21.40;99.90
43227;DHT22;28839;52.404;9.808;2023-09-12T14:54:19;21.50;99.90
43227;DHT22;28839;52.404;9.808;2023-09-12T15:01:16;21.50;99.90
43227;DHT22;28839;52.404;9.808;2023-09-12T15:08:10;21.60;99.90
43227;DHT22;28839;52.404;9.808;2023-09-12T15:15:03;21.70;99.90
43227;DHT22;28839;52.404;9.808;2023-09-12T15:21:59;21.50;99.90
43227;DHT22;28839;52.404;9.808;2023-09-12T15:28:52;21.30;99.90
43227;DHT22;28839;52.404;9.808;2023-09-12T15:35:46;21.50;99.90
43227;DHT22;28839;52.404;9.808;2023-09-12T15:42:41;21.30;99.90
43227;DHT22;28839;52.404;9.808;2023-09-12T15:49:34;21.20;99.90
43227;DHT22;28839;52.404;9.808;2023-09-12T15:56:28;21.30;99.90
43227;DHT22;28839;52.404;9.808;2023-09-12T16:03:23;21.40;99.90
43227;DHT22;28839;52.404;9.808;2023-09-12T16:10:17;21.20;99.90
43227;DHT22;28839;52.404;9.808;2023-09-12T16:17:10;21.10;99.90
43227;DHT22;28839;52.404;9.808;2023-09-12T16:24:06;21.00;99.90
43227;DHT22;28839;52.404;9.808;2023-09-12T16:31:02;20.90;99.90
43227;DHT22;28839;52.404;9.808;2023-09-12T16:37:56;20.90;99.90
43227;DHT22;28839;52.404;9.808;2023-09-12T16:44:51;20.80;99.90
43227;DHT22;28839;52.404;9.808;2023-09-12T16:51:45;20.80;99.90
43227;DHT22;28839;52.404;9.808;2023-09-12T16:58:38;20.80;99.90
43227;DHT22;28839;52.404;9.808;2023-09-12T17:05:34;20.70;99.90
43227;DHT22;28839;52.404;9.808;2023-09-12T17:12:28;20.60;99.90
43227;DHT22;28839;52.404;9.808;2023-09-12T17:19:22;20.40;99.90
43227;DHT22;28839;52.404;9.808;2023-09-12T17:26:17;20.40;99.90
43227;DHT22;28839;52.404;9.808;2023-09-12T17:33:11;20.20;99.90
43227;DHT22;28839;52.404;9.808;2023-09-12T17:40:05;20.00;99.90
43227;DHT22;28839;52.404;9.808;2023-09-12T17:47:01;20.10;99.90
43227;DHT22;28839;52.404;9.808;2023-09-12T17:53:56;19.90;99.90
43227;DHT22;28839;52.404;9.808;2023-09-12T18:00:56;19.80;99.90
43227;DHT22;28839;52.404;9.808;2023-09-12T18:07:51;19.70;99.90
43227;DHT22;28839;52.404;9.808;2023-09-12T18:14:45;19.70;99.90
43227;DHT22;28839;52.404;9.808;2023-09-12T18:21:39;19.70;99.90
43227;DHT22;28839;52.404;9.808;2023-09-12T18:28:38;19.80;99.90
43227;DHT22;28839;52.404;9.808;2023-09-12T18:35:32;19.80;99.90
43227;DHT22;28839;52.404;9.808;2023-09-12T18:42:26;19.70;99.90
43227;DHT22;28839;52.404;9.808;2023-09-12T18:49:21;19.60;99.90
43227;DHT22;28839;52.404;9.808;2023-09-12T18:56:14;19.50;99.90
43227;DHT22;28839;52.404;9.808;2023-09-12T19:03:08;19.40;99.90
43227;DHT22;28839;52.404;9.808;2023-09-12T19:10:04;19.40;99.90
43227;DHT22;28839;52.404;9.808;2023-09-12T19:17:02;19.30;99.90
43227;DHT22;28839;52.404;9.808;2023-09-12T19:23:57;19.30;99.90
43227;DHT22;28839;52.404;9.808;2023-09-12T19:30:52;19.20;99.90
43227;DHT22;28839;52.404;9.808;2023-09-12T19:37:46;19.20;99.90
43227;DHT22;28839;52.404;9.808;2023-09-12T19:44:40;19.20;99.90
43227;DHT22;28839;52.404;9.808;2023-09-12T19:51:40;19.20;99.90
43227;DHT22;28839;52.404;9.808;2023-09-12T19:58:36;19.20;99.90
43227;DHT22;28839;52.404;9.808;2023-09-12T20:05:30;19.30;99.90
43227;DHT22;28839;52.404;9.808;2023-09-12T20:12:25;19.10;99.90
43227;DHT22;28839;52.404;9.808;2023-09-12T20:19:19;19.00;99.90
43227;DHT22;28839;52.404;9.808;2023-09-12T20:26:13;19.10;99.90
43227;DHT22;28839;52.404;9.808;2023-09-12T20:33:08;18.80;99.90
43227;DHT22;28839;52.404;9.808;2023-09-12T20:40:01;18.90;99.90
43227;DHT22;28839;52.404;9.808;2023-09-12T20:46:56;18.90;99.90
43227;DHT22;28839;52.404;9.808;2023-09-12T20:53:51;18.80;99.90
43227;DHT22;28839;52.404;9.808;2023-09-12T21:00:45;18.80;99.90
43227;DHT22;28839;52.404;9.808;2023-09-12T21:07:38;18.70;99.90
43227;DHT22;28839;52.404;9.808;2023-09-12T21:14:33;18.70;99.90
43227;DHT22;28839;52.404;9.808;2023-09-12T21:21:27;18.70;99.90
43227;DHT22;28839;52.404;9.808;2023-09-12T21:28:21;18.60;99.90
43227;DHT22;28839;52.404;9.808;2023-09-12T21:35:16;18.70;99.90
43227;DHT22;28839;52.404;9.808;2023-09-12T21:42:11;18.60;99.90
43227;DHT22;28839;52.404;9.808;2023-09-12T21:49:10;18.50;99.90
43227;DHT22;28839;52.404;9.808;2023-09-12T21:56:05;18.60;99.90
43227;DHT22;28839;52.404;9.808;2023-09-12T22:02:59;18.70;99.90
43227;DHT22;28839;52.404;9.808;2023-09-12T22:09:53;18.70;99.90
43227;DHT22;28839;52.404;9.808;2023-09-12T22:16:48;18.70;99.90
43227;DHT22;28839;52.404;9.808;2023-09-12T22:23:42;18.60;99.90
43227;DHT22;28839;52.404;9.808;2023-09-12T22:30:37;18.60;99.90
43227;DHT22;28839;52.404;9.808;2023-09-12T22:37:32;18.60;99.90
43227;DHT22;28839;52.404;9.808;2023-09-12T22:44:25;18.60;99.90
43227;DHT22;28839;52.404;9.808;2023-09-12T22:51:19;18.60;99.90
43227;DHT22;28839;52.404;9.808;2023-09-12T22:58:14;18.50;99.90
43227;DHT22;28839;52.404;9.808;2023-09-12T23:05:08;18.40;99.90
43227;DHT22;28839;52.404;9.808;2023-09-12T23:12:01;18.40;99.90
43227;DHT22;28839;52.404;9.808;2023-09-12T23:18:56;18.40;99.90
43227;DHT22;28839;52.404;9.808;2023-09-12T23:25:51;18.30;99.90
43227;DHT22;28839;52.404;9.808;2023-09-12T23:32:45;18.30;99.90
43227;DHT22;28839;52.404;9.808;2023-09-12T23:39:41;18.20;99.90
43227;DHT22;28839;52.404;9.808;2023-09-12T23:46:34;18.20;99.90
43227;DHT22;28839;52.404;9.808;2023-09-12T23:53:29;18.20;99.90
